createdAt,value
2019-05-02T00:01:26.856Z,34.50
2019-05-02T00:03:57.114Z,32.67
2019-05-02T00:06:27.337Z,32.97
2019-05-02T00:08:56.931Z,33.70
2019-05-02T00:11:27.129Z,36.03
2019-05-02T00:13:57.038Z,35.80
2019-05-02T00:16:26.725Z,30.63
2019-05-02T00:18:56.484Z,32.53
2019-05-02T00:21:26.150Z,35.27
2019-05-02T00:23:59.131Z,34.03
2019-05-02T00:26:26.952Z,33.23
2019-05-02T00:28:56.676Z,31.27
2019-05-02T00:31:26.248Z,31.57
2019-05-02T00:33:55.830Z,32.10
2019-05-02T00:36:25.383Z,30.93
2019-05-02T00:38:54.978Z,31.03
2019-05-02T00:41:24.567Z,30.50
2019-05-02T00:43:54.194Z,30.03
2019-05-02T00:46:23.767Z,30.33
2019-05-02T00:48:59.678Z,30.00
2019-05-02T00:51:26.671Z,31.17
2019-05-02T00:53:57.549Z,30.73
2019-05-02T00:56:27.119Z,30.53
2019-05-02T00:58:56.680Z,31.27
2019-05-02T01:01:29.454Z,30.03
2019-05-02T01:04:17.444Z,29.20
2019-05-02T01:06:49.273Z,28.47
2019-05-02T01:09:18.315Z,28.93
2019-05-02T01:11:47.892Z,29.50
2019-05-02T01:14:17.510Z,30.13
2019-05-02T01:16:49.454Z,29.83
2019-05-02T01:19:18.397Z,28.57
2019-05-02T01:21:49.602Z,29.67
2019-05-02T01:24:19.167Z,26.77
2019-05-02T01:26:50.378Z,27.07
2019-05-02T01:29:31.749Z,27.47
2019-05-02T01:32:07.274Z,25.33
2019-05-02T01:34:44.337Z,27.57
2019-05-02T01:37:21.131Z,27.40
2019-05-02T01:39:49.781Z,28.10
2019-05-02T01:42:19.330Z,26.53
2019-05-02T01:44:48.902Z,28.07
2019-05-02T01:47:18.426Z,32.37
2019-05-02T01:49:51.958Z,28.53
2019-05-02T01:52:23.791Z,27.50
2019-05-02T01:54:50.512Z,29.10
2019-05-02T01:57:20.064Z,29.07
2019-05-02T01:59:49.631Z,28.57
2019-05-02T02:02:19.494Z,28.90
2019-05-02T02:04:52.235Z,30.03
2019-05-02T02:07:21.238Z,29.17
2019-05-02T02:09:50.910Z,30.20
2019-05-02T02:12:20.545Z,34.17
2019-05-02T02:14:53.470Z,30.40
2019-05-02T02:17:21.334Z,31.73
2019-05-02T02:19:52.521Z,30.37
2019-05-02T02:22:23.725Z,31.97
2019-05-02T02:25:10.932Z,30.53
2019-05-02T02:27:40.741Z,30.47
2019-05-02T02:30:17.772Z,31.83
2019-05-02T02:32:42.264Z,31.33
2019-05-02T02:35:12.680Z,30.47
2019-05-02T02:37:51.912Z,31.53
2019-05-02T02:40:14.497Z,34.13
2019-05-02T02:42:44.077Z,33.10
2019-05-02T02:45:38.620Z,32.33
2019-05-02T02:48:08.122Z,32.53
2019-05-02T02:50:45.399Z,32.10
2019-05-02T02:53:18.067Z,32.23
2019-05-02T02:55:47.866Z,34.03
2019-05-02T02:58:17.419Z,31.83
2019-05-02T03:00:47.581Z,32.80
2019-05-02T03:03:20.783Z,33.43
2019-05-02T03:05:49.623Z,35.30
2019-05-02T03:08:19.345Z,34.80
2019-05-02T03:10:49.282Z,31.93
2019-05-02T03:13:24.585Z,33.50
2019-05-02T03:16:13.434Z,33.60
2019-05-02T03:18:43.326Z,32.33
2019-05-02T03:21:19.603Z,30.37
2019-05-02T03:23:44.687Z,31.17
2019-05-02T03:26:15.574Z,32.43
2019-05-02T03:28:57.298Z,33.43
2019-05-02T03:31:30.337Z,33.07
2019-05-02T03:33:56.594Z,32.73
2019-05-02T03:36:29.628Z,37.20
2019-05-02T03:38:51.729Z,35.17
2019-05-02T03:41:23.649Z,35.43
2019-05-02T03:44:09.940Z,35.40
2019-05-02T03:46:24.158Z,34.90
2019-05-02T03:49:05.969Z,35.63
2019-05-02T03:51:25.508Z,33.73
2019-05-02T03:54:06.104Z,36.67
2019-05-02T03:56:26.525Z,35.03
2019-05-02T03:58:58.207Z,36.73
2019-05-02T04:01:27.728Z,37.80
2019-05-02T04:03:57.456Z,36.50
2019-05-02T04:06:27.008Z,37.17
2019-05-02T04:08:59.842Z,35.87
2019-05-02T04:11:38.293Z,35.30
2019-05-02T04:14:00.132Z,35.20
2019-05-02T04:16:30.796Z,35.40
2019-05-02T04:19:02.607Z,36.40
2019-05-02T04:21:32.622Z,37.80
2019-05-02T04:24:12.881Z,37.10
2019-05-02T04:26:34.567Z,36.10
2019-05-02T04:29:04.260Z,34.87
2019-05-02T04:31:34.052Z,34.97
2019-05-02T04:34:13.591Z,35.37
2019-05-02T04:36:35.210Z,36.50
2019-05-02T04:39:12.714Z,34.37
2019-05-02T04:41:42.509Z,34.23
2019-05-02T04:44:10.768Z,35.27
2019-05-02T04:46:40.327Z,37.30
2019-05-02T04:49:09.881Z,37.37
2019-05-02T04:51:41.001Z,35.73
2019-05-02T04:54:21.848Z,34.10
2019-05-02T04:56:49.511Z,35.90
2019-05-02T04:59:17.856Z,34.90
2019-05-02T05:01:52.773Z,35.60
2019-05-02T05:04:17.817Z,35.53
2019-05-02T05:06:55.882Z,36.57
2019-05-02T05:09:21.737Z,32.93
2019-05-02T05:11:53.920Z,34.00
2019-05-02T05:14:22.552Z,32.80
2019-05-02T05:16:55.572Z,33.30
2019-05-02T05:19:28.710Z,32.40
2019-05-02T05:21:56.722Z,32.87
2019-05-02T05:24:27.947Z,34.37
2019-05-02T05:27:00.176Z,35.37
2019-05-02T05:29:29.869Z,34.73
2019-05-02T05:32:05.105Z,35.93
2019-05-02T05:34:32.738Z,37.20
2019-05-02T05:37:03.532Z,34.37
2019-05-02T05:39:33.597Z,35.40
2019-05-02T05:42:03.107Z,34.63
2019-05-02T05:44:32.911Z,34.93
2019-05-02T05:47:02.476Z,33.53
2019-05-02T05:49:32.068Z,33.57
2019-05-02T05:52:03.721Z,34.57
2019-05-02T05:54:37.547Z,33.60
2019-05-02T05:57:04.222Z,32.53
2019-05-02T05:59:33.821Z,31.73
2019-05-02T06:02:05.695Z,32.43
2019-05-02T06:04:35.014Z,31.23
2019-05-02T06:07:04.643Z,30.70
2019-05-02T06:09:34.219Z,31.40
2019-05-02T06:12:04.292Z,35.67
2019-05-02T06:14:35.432Z,34.17
2019-05-02T06:17:05.168Z,32.53
2019-05-02T06:19:34.798Z,35.47
2019-05-02T06:22:04.406Z,36.13
2019-05-02T06:24:35.211Z,36.67
2019-05-02T06:27:04.922Z,36.20
2019-05-02T06:29:37.605Z,37.73
2019-05-02T06:32:07.314Z,38.77
2019-05-02T06:34:46.011Z,37.23
2019-05-02T06:37:13.432Z,38.23
2019-05-02T06:39:42.667Z,36.20
2019-05-02T06:42:12.209Z,37.20
2019-05-02T06:44:42.522Z,36.67
2019-05-02T06:47:13.106Z,38.63
2019-05-02T06:49:43.914Z,37.17
2019-05-02T06:52:14.487Z,35.57
2019-05-02T06:54:44.166Z,39.93
2019-05-02T06:57:13.898Z,38.50
2019-05-02T06:59:43.437Z,40.47
2019-05-02T07:02:13.049Z,40.57
2019-05-02T07:04:42.581Z,41.20
2019-05-02T07:07:13.213Z,41.77
2019-05-02T07:09:43.216Z,43.20
2019-05-02T07:12:14.730Z,43.80
2019-05-02T07:14:45.875Z,44.33
2019-05-02T07:17:36.451Z,45.43
2019-05-02T07:20:08.581Z,44.20
2019-05-02T07:22:40.442Z,45.23
2019-05-02T07:25:11.071Z,46.03
2019-05-02T07:27:40.703Z,40.77
2019-05-02T07:30:11.844Z,41.20
2019-05-02T07:32:41.392Z,42.80
2019-05-02T07:35:11.260Z,40.77
2019-05-02T07:37:43.969Z,41.73
2019-05-02T07:40:16.924Z,46.70
2019-05-02T07:42:47.992Z,41.13
2019-05-02T07:45:18.251Z,41.67
2019-05-02T07:47:47.967Z,42.90
2019-05-02T07:50:17.830Z,39.87
2019-05-02T07:52:47.445Z,40.57
2019-05-02T07:55:17.039Z,41.77
2019-05-02T07:57:46.805Z,39.57
2019-05-02T08:00:18.749Z,43.10
2019-05-02T08:02:51.947Z,42.43
2019-05-02T08:05:23.955Z,40.07
2019-05-02T08:07:55.201Z,40.37
2019-05-02T08:10:25.072Z,43.17
2019-05-02T08:12:54.832Z,40.57
2019-05-02T08:15:24.932Z,40.77
2019-05-02T08:17:55.212Z,39.90
2019-05-02T08:20:25.191Z,41.33
2019-05-02T08:22:54.756Z,40.13
2019-05-02T08:25:24.389Z,40.87
2019-05-02T08:27:55.565Z,39.23
2019-05-02T08:30:26.915Z,47.07
2019-05-02T08:32:56.498Z,42.30
2019-05-02T08:35:28.317Z,42.27
2019-05-02T08:37:59.789Z,40.70
2019-05-02T08:40:32.628Z,41.67
2019-05-02T08:43:03.700Z,42.10
2019-05-02T08:45:38.139Z,41.80
2019-05-02T08:48:06.774Z,39.60
2019-05-02T08:50:39.183Z,40.83
2019-05-02T08:53:08.785Z,42.13
2019-05-02T08:55:41.425Z,39.97
2019-05-02T08:58:14.539Z,44.20
2019-05-02T09:00:41.162Z,42.63
2019-05-02T09:03:10.797Z,43.80
2019-05-02T09:05:46.023Z,44.10
2019-05-02T09:08:14.247Z,42.00
2019-05-02T09:10:45.548Z,43.73
2019-05-02T09:13:23.269Z,43.00
2019-05-02T09:15:51.190Z,45.33
2019-05-02T09:18:17.767Z,43.90
2019-05-02T09:20:52.572Z,44.87
2019-05-02T09:23:18.612Z,45.57
2019-05-02T09:25:48.882Z,43.87
2019-05-02T09:28:22.502Z,43.77
2019-05-02T09:30:52.313Z,46.33
2019-05-02T09:33:25.648Z,41.30
2019-05-02T09:35:53.635Z,41.83
2019-05-02T09:38:24.412Z,40.00
2019-05-02T09:40:56.174Z,43.17
2019-05-02T09:44:25.377Z,40.43
2019-05-02T09:46:16.594Z,39.93
2019-05-02T09:48:45.943Z,40.50
2019-05-02T09:51:17.567Z,37.03
2019-05-02T09:53:47.573Z,40.53
2019-05-02T09:56:19.354Z,40.10
2019-05-02T09:58:54.292Z,39.33
2019-05-02T10:01:28.656Z,39.90
2019-05-02T10:03:58.586Z,42.60
2019-05-02T10:06:32.071Z,39.60
2019-05-02T10:09:05.686Z,39.80
2019-05-02T10:11:35.554Z,39.57
2019-05-02T10:14:07.194Z,38.10
2019-05-02T10:16:38.844Z,38.13
2019-05-02T10:19:25.725Z,40.63
2019-05-02T10:21:56.201Z,40.50
2019-05-02T10:24:25.580Z,38.03
2019-05-02T10:27:04.276Z,36.07
2019-05-02T10:29:29.900Z,38.83
2019-05-02T10:32:01.768Z,37.60
2019-05-02T10:34:32.968Z,38.27
2019-05-02T10:37:03.220Z,38.30
2019-05-02T10:39:37.969Z,36.43
2019-05-02T10:42:12.411Z,35.67
2019-05-02T10:44:42.685Z,35.93
2019-05-02T10:47:13.035Z,34.93
2019-05-02T10:49:45.277Z,34.87
2019-05-02T10:52:15.990Z,37.03
2019-05-02T10:54:45.865Z,35.33
2019-05-02T10:57:15.732Z,35.73
2019-05-02T10:59:46.353Z,34.67
2019-05-02T11:02:29.233Z,36.07
2019-05-02T11:05:17.002Z,35.67
2019-05-02T11:07:44.574Z,34.47
2019-05-02T11:10:15.207Z,30.77
2019-05-02T11:12:47.179Z,32.80
2019-05-02T11:15:34.984Z,31.70
2019-05-02T11:18:05.601Z,31.40
2019-05-02T11:20:35.748Z,33.93
2019-05-02T11:23:05.547Z,31.10
2019-05-02T11:25:35.484Z,29.93
2019-05-02T11:28:07.102Z,32.87
2019-05-02T11:30:39.045Z,33.27
2019-05-02T11:33:09.493Z,30.23
2019-05-02T11:35:41.877Z,33.00
2019-05-02T11:38:34.556Z,31.40
2019-05-02T11:40:43.173Z,33.87
2019-05-02T11:43:15.136Z,32.80
2019-05-02T11:45:44.588Z,31.90
2019-05-02T11:48:16.151Z,31.43
2019-05-02T11:50:46.675Z,29.83
2019-05-02T11:53:29.181Z,31.03
2019-05-02T11:55:49.747Z,32.60
2019-05-02T11:58:20.107Z,32.63
2019-05-02T12:00:52.080Z,32.13
2019-05-02T12:03:35.502Z,31.50
2019-05-02T12:06:01.973Z,27.33
2019-05-02T12:08:31.999Z,29.97
2019-05-02T12:11:03.890Z,28.20
2019-05-02T12:13:33.824Z,26.40
2019-05-02T12:16:05.210Z,30.17
2019-05-02T12:18:35.080Z,27.90
2019-05-02T12:21:04.809Z,26.70
2019-05-02T12:23:36.369Z,26.67
2019-05-02T12:26:06.674Z,27.47
2019-05-02T12:28:36.593Z,26.63
2019-05-02T12:31:13.204Z,27.07
2019-05-02T12:33:42.741Z,30.73
2019-05-02T12:36:12.485Z,30.03
2019-05-02T12:38:54.467Z,29.93
2019-05-02T12:41:28.323Z,30.77
2019-05-02T12:43:57.868Z,29.93
2019-05-02T12:46:32.658Z,30.70
2019-05-02T12:49:02.815Z,30.83
2019-05-02T12:51:32.734Z,27.90
2019-05-02T12:54:14.081Z,28.40
2019-05-02T12:56:50.295Z,25.03
2019-05-02T12:59:25.953Z,28.13
2019-05-02T13:03:16.383Z,32.23
2019-05-02T13:25:02.422Z,27.37
2019-05-02T13:27:43.266Z,28.43
2019-05-02T13:30:06.701Z,26.70
2019-05-02T13:32:38.863Z,29.10
2019-05-02T13:35:31.515Z,29.33
2019-05-02T13:38:02.768Z,28.63
2019-05-02T13:40:41.830Z,28.03
2019-05-02T13:43:12.565Z,26.00
2019-05-02T13:45:45.786Z,25.10
2019-05-02T13:48:16.580Z,26.40
2019-05-02T13:50:46.879Z,26.30
2019-05-02T13:53:17.366Z,24.20
2019-05-02T13:55:52.422Z,25.30
2019-05-02T13:58:28.977Z,24.97
2019-05-02T14:00:53.531Z,23.60
2019-05-02T14:03:23.353Z,23.90
2019-05-02T14:05:53.864Z,23.00
2019-05-02T14:08:37.057Z,28.77
2019-05-02T14:11:07.044Z,23.27
2019-05-02T14:13:38.182Z,25.27
2019-05-02T14:16:08.347Z,24.30
2019-05-02T14:18:38.980Z,23.20
2019-05-02T14:21:08.598Z,23.27
2019-05-02T14:23:38.168Z,27.47
2019-05-02T14:26:07.825Z,25.00
2019-05-02T14:28:37.387Z,27.10
2019-05-02T14:31:07.190Z,23.87
2019-05-02T14:33:39.138Z,24.03
2019-05-02T14:36:11.601Z,24.67
2019-05-02T14:38:42.203Z,31.73
2019-05-02T14:41:13.387Z,27.80
2019-05-02T14:43:55.520Z,25.60
2019-05-02T14:46:34.440Z,26.73
2019-05-02T14:48:57.232Z,27.47
2019-05-02T14:51:28.003Z,29.67
2019-05-02T14:54:03.820Z,28.43
2019-05-02T14:56:32.893Z,31.37
2019-05-02T14:59:02.760Z,27.03
2019-05-02T15:01:32.443Z,28.70
2019-05-02T15:04:06.504Z,27.53
2019-05-02T15:06:38.422Z,25.83
2019-05-02T15:09:11.925Z,28.13
2019-05-02T15:11:46.073Z,27.83
2019-05-02T15:14:19.807Z,26.67
2019-05-02T15:16:56.649Z,27.60
2019-05-02T15:19:22.434Z,33.57
2019-05-02T15:21:55.941Z,37.97
2019-05-02T15:24:27.817Z,41.03
2019-05-02T15:26:56.011Z,45.43
2019-05-02T15:29:27.288Z,42.40
2019-05-02T15:32:05.273Z,44.67
2019-05-02T15:34:43.270Z,46.70
2019-05-02T15:37:09.773Z,46.83
2019-05-02T15:42:12.143Z,46.27
2019-05-02T15:44:42.630Z,48.77
2019-05-02T15:47:12.452Z,49.17
2019-05-02T15:49:50.157Z,46.83
2019-05-02T15:52:24.172Z,49.03
2019-05-02T15:54:59.760Z,48.20
2019-05-02T15:57:27.085Z,46.03
2019-05-02T15:59:59.176Z,48.10
2019-05-02T16:02:32.080Z,45.93
2019-05-02T16:05:05.393Z,48.63
2019-05-02T16:07:38.014Z,45.37
2019-05-02T16:10:13.136Z,43.83
2019-05-02T16:12:44.461Z,45.77
2019-05-02T16:15:24.608Z,47.67
2019-05-02T16:17:56.746Z,46.20
2019-05-02T16:20:34.538Z,45.07
2019-05-02T16:23:05.950Z,45.70
2019-05-02T16:25:35.514Z,46.77
2019-05-02T16:28:06.164Z,48.43
2019-05-02T16:30:36.958Z,47.07
2019-05-02T16:33:07.999Z,50.27
2019-05-02T16:35:41.930Z,50.50
2019-05-02T16:38:12.303Z,52.37
2019-05-02T16:40:43.129Z,51.17
2019-05-02T16:43:12.937Z,49.80
2019-05-02T16:45:43.894Z,51.07
2019-05-02T16:48:13.658Z,51.93
2019-05-02T16:50:45.057Z,53.77
2019-05-02T16:53:17.140Z,54.57
2019-05-02T16:55:48.591Z,54.73
2019-05-02T16:58:19.218Z,55.20
2019-05-02T17:00:49.073Z,51.97
2019-05-02T17:03:22.759Z,47.93
2019-05-02T17:05:54.183Z,48.40
2019-05-02T17:08:42.218Z,44.17
2019-05-02T17:11:17.551Z,41.57
2019-05-02T17:13:49.803Z,40.80
2019-05-02T17:16:22.134Z,36.50
2019-05-02T17:18:56.577Z,36.13
2019-05-02T17:21:26.782Z,34.07
2019-05-02T17:23:58.022Z,35.13
2019-05-02T17:26:28.446Z,36.13
2019-05-02T17:29:00.098Z,34.07
2019-05-02T17:31:32.251Z,27.53
2019-05-02T17:34:02.857Z,29.97
2019-05-02T17:36:32.884Z,29.63
2019-05-02T17:39:06.331Z,27.33
2019-05-02T17:41:37.131Z,25.70
2019-05-02T17:44:07.706Z,28.97
2019-05-02T17:46:39.288Z,29.10
2019-05-02T17:49:11.806Z,31.23
2019-05-02T17:51:51.823Z,32.77
2019-05-02T17:54:22.796Z,37.30
2019-05-02T17:56:57.346Z,35.43
2019-05-02T17:59:33.022Z,33.47
2019-05-02T18:02:01.854Z,34.53
2019-05-02T18:04:32.537Z,35.63
2019-05-02T18:07:04.506Z,36.73
2019-05-02T18:09:35.144Z,36.73
2019-05-02T18:12:07.224Z,37.10
2019-05-02T18:14:36.612Z,35.27
2019-05-02T18:17:06.242Z,35.73
2019-05-02T18:19:37.731Z,31.50
2019-05-02T18:22:22.486Z,31.67
2019-05-02T18:24:42.786Z,33.50
2019-05-02T18:27:10.285Z,32.03
2019-05-02T18:29:42.614Z,31.47
2019-05-02T18:32:12.888Z,31.17
2019-05-02T18:34:42.627Z,30.40
2019-05-02T18:37:12.297Z,30.07
2019-05-02T18:39:49.900Z,30.00
2019-05-02T18:42:16.612Z,28.60
2019-05-02T18:44:48.239Z,30.13
2019-05-02T18:47:20.166Z,28.67
2019-05-02T18:49:47.633Z,28.57
2019-05-02T18:52:17.257Z,30.03
2019-05-02T18:54:47.449Z,29.97
2019-05-02T18:57:21.814Z,28.67
2019-05-02T18:59:51.957Z,34.03
2019-05-02T19:02:21.258Z,31.17
2019-05-02T19:04:51.726Z,31.03
2019-05-02T19:07:30.910Z,31.97
2019-05-02T19:09:53.936Z,31.43
2019-05-02T19:12:25.992Z,30.20
2019-05-02T19:14:57.458Z,30.40
2019-05-02T19:17:26.206Z,32.20
2019-05-02T19:19:55.783Z,30.83
2019-05-02T19:22:25.617Z,29.00
2019-05-02T19:24:55.215Z,29.93
2019-05-02T19:27:29.111Z,27.23
2019-05-02T19:29:58.688Z,30.77
2019-05-02T19:32:28.541Z,28.60
2019-05-02T19:35:05.382Z,27.77
2019-05-02T19:37:31.611Z,28.20
2019-05-02T19:40:01.606Z,28.43
2019-05-02T19:42:31.853Z,28.67
2019-05-02T19:45:11.197Z,30.70
2019-05-02T19:47:33.499Z,26.73
2019-05-02T19:50:03.867Z,25.73
2019-05-02T19:52:39.188Z,25.30
2019-05-02T19:55:06.737Z,26.63
2019-05-02T19:57:36.856Z,27.20
2019-05-02T20:00:08.868Z,26.27
2019-05-02T20:02:42.239Z,28.50
2019-05-02T20:05:11.855Z,28.73
2019-05-02T20:07:42.697Z,29.60
2019-05-02T20:10:17.922Z,27.10
2019-05-02T20:12:48.233Z,26.70
2019-05-02T20:15:25.350Z,27.77
2019-05-02T20:17:55.293Z,27.33
2019-05-02T20:20:42.664Z,28.87
2019-05-02T20:23:17.948Z,28.57
2019-05-02T20:25:44.904Z,29.30
2019-05-02T20:28:14.748Z,28.53
2019-05-02T20:30:44.468Z,28.97
2019-05-02T20:33:14.248Z,30.50
2019-05-02T20:35:44.006Z,31.03
2019-05-02T20:38:13.920Z,33.60
2019-05-02T20:40:43.741Z,32.90
2019-05-02T20:43:13.577Z,32.40
2019-05-02T20:45:46.103Z,32.87
2019-05-02T20:48:15.245Z,28.17
2019-05-02T20:50:45.106Z,23.00
2019-05-02T20:53:27.480Z,20.97
2019-05-02T20:55:46.545Z,20.07
2019-05-02T20:58:16.316Z,18.33
2019-05-02T21:00:46.270Z,17.87
2019-05-02T21:03:16.230Z,17.80
2019-05-02T21:05:47.986Z,13.40
2019-05-02T21:08:25.882Z,12.37
2019-05-02T21:11:01.798Z,13.30
2019-05-02T21:13:32.744Z,9.73
2019-05-02T21:16:02.877Z,8.60
2019-05-02T21:18:32.910Z,10.77
2019-05-02T21:21:02.950Z,6.17
2019-05-02T21:23:44.168Z,5.63
2019-05-02T21:26:04.743Z,7.20
2019-05-02T21:28:34.615Z,7.40
2019-05-02T21:31:04.641Z,7.20
2019-05-02T21:33:37.551Z,10.47
2019-05-02T21:36:08.119Z,9.03
2019-05-02T21:38:38.622Z,9.07
2019-05-02T21:41:11.376Z,5.90
2019-05-02T21:43:42.471Z,8.57
2019-05-02T21:46:12.357Z,7.07
2019-05-02T21:48:42.184Z,4.43
2019-05-02T21:51:17.034Z,4.97
2019-05-02T21:53:55.069Z,5.17
2019-05-02T21:56:23.536Z,4.07
2019-05-02T21:59:05.944Z,8.20
2019-05-02T22:01:42.089Z,7.33
2019-05-02T22:04:13.175Z,4.87
2019-05-02T22:06:42.934Z,5.23
2019-05-02T22:09:12.847Z,7.50
2019-05-02T22:11:43.155Z,4.90
2019-05-02T22:14:13.308Z,4.87
2019-05-02T22:16:43.606Z,5.17
2019-05-02T22:19:13.132Z,6.40
2019-05-02T22:21:43.098Z,6.33
2019-05-02T22:24:14.405Z,4.10
2019-05-02T22:26:44.141Z,5.63
2019-05-02T22:29:13.688Z,4.83
2019-05-02T22:31:43.244Z,4.83
2019-05-02T22:34:13.066Z,4.30
2019-05-02T22:36:43.829Z,5.23
2019-05-02T22:39:31.687Z,3.17
2019-05-02T22:42:01.993Z,6.03
2019-05-02T22:44:32.700Z,3.67
2019-05-02T22:47:02.207Z,4.13
2019-05-02T22:49:31.973Z,4.37
2019-05-02T22:52:01.855Z,5.53
2019-05-02T22:54:33.885Z,5.20
2019-05-02T22:57:02.806Z,5.13
2019-05-02T22:59:32.354Z,4.17
2019-05-02T23:02:02.249Z,4.27
2019-05-02T23:04:32.486Z,4.00
2019-05-02T23:07:02.579Z,6.30
2019-05-02T23:09:32.150Z,5.50
2019-05-02T23:12:02.851Z,4.10
2019-05-02T23:14:32.737Z,5.30
2019-05-02T23:17:02.382Z,5.27
2019-05-02T23:19:33.529Z,4.90
2019-05-02T23:22:03.183Z,5.13
2019-05-02T23:24:38.756Z,4.63
2019-05-02T23:27:13.397Z,7.97
2019-05-02T23:29:43.137Z,8.60
2019-05-02T23:32:12.689Z,4.17
2019-05-02T23:34:42.263Z,5.07
2019-05-02T23:37:12.004Z,4.70
2019-05-02T23:39:41.867Z,6.33
2019-05-02T23:42:13.397Z,6.63
2019-05-02T23:44:42.780Z,4.77
2019-05-02T23:47:12.352Z,3.83
2019-05-02T23:49:42.698Z,6.57
2019-05-02T23:52:12.392Z,6.57
2019-05-02T23:54:49.279Z,5.67
2019-05-02T23:57:13.255Z,7.20
2019-05-02T23:59:42.808Z,5.87
